Terminal Aerodrome Forecast
Issued by NWS Charleston, WV

Current Version | Previous Version | Graphics & Text | Print | Product List | Glossary On
Versions: 1 2 3 4 5 6 7 8 9 10 11 12 13 14 15 16 17 18 19 20 21 22 23 24 25
000
FTUS41 KRLX 271100
TAFHTS
TAF
KHTS 271135Z 2712/2812 00000KT 4SM BR SCT002
     FM271230 00000KT 6SM BR FEW002
     FM271300 00000KT P6SM FEW090
     FM272000 00000KT P6SM BKN045
     FM272100 VRB03KT P6SM VCTS BKN045CB
     FM280000 VRB03KT P6SM BKN050
     FM280800 VRB03KT 4SM BR SCT035=

USA.gov is the U.S. government's official web portal to all federal, state and local government web resources and services.